Keizer, Oregon
Current Conditions -  °F | °C
As of 1:56 PM on Sunday 25 Jan 2015 (Local Time) from KSLE Reporting Station
Haze Haze  
Wind Chill: 49°   Ceiling: 300
Heat Index: 49°   Visibility: 2.5mi
Dew Point: 47°   Wind: 0mph
Humidity: 93%   Direction: NA
Pressure: 30.07"   Gusts: NA
Location:  45°N, 123.02°W
Report Text: KSLE 252156Z 00000KT 2 1/2SM BR OVC003 09/08 A3007 RMK AO2 SLP184 T00940083
Loading
Personal Weather Stations






























Interactive Weather Map New forecast layout! Learn more

10-Day Weather Forecast

Advertisements
Track Severe Weather on mobile